Time;durP1;ratioP1;P1;durP2;ratioP2;P2;SDS_P1;SDS_P2;PMS_P1;PMS_P2;Temp;Humidity;BMP_temperature;BMP_pressure;BME280_temperature;BME280_humidity;BME280_pressure;Samples;Min_cycle;Max_cycle;Signal;HPM_P1;HPM_P2
2021/10/27 00:02:03;;;;;;;42.77;20.53;;;8.30;99.90;;;;;;5014783;28;20201;-89
2021/10/27 00:04:29;;;;;;;43.33;21.50;;;;;;;;;;4998489;28;20189;-89
2021/10/27 00:06:55;;;;;;;43.40;21.00;;;8.10;99.90;;;;;;5017076;28;20189;-91
2021/10/27 00:09:23;;;;;;;46.87;21.37;;;8.10;99.90;;;;;;5025834;28;20231;-91
2021/10/27 00:11:50;;;;;;;42.70;20.60;;;8.50;99.90;;;;;;5026858;28;20188;-90
2021/10/27 00:14:20;;;;;;;39.70;20.90;;;8.10;99.90;;;;;;5028025;28;20177;-90
2021/10/27 00:16:49;;;;;;;42.07;20.83;;;8.20;99.90;;;;;;5029967;28;20260;-89
2021/10/27 00:19:17;;;;;;;41.37;19.70;;;8.10;99.90;;;;;;5039021;28;20239;-94
2021/10/27 00:21:43;;;;;;;46.33;21.63;;;;;;;;;;5039795;28;20224;-89
2021/10/27 00:24:09;;;;;;;36.40;19.97;;;;;;;;;;5039156;28;20170;-93
2021/10/27 00:26:36;;;;;;;40.47;20.40;;;;;;;;;;5035023;28;20196;-89
2021/10/27 00:29:02;;;;;;;35.03;19.33;;;10.90;99.90;;;;;;5019023;28;20185;-89
2021/10/27 00:31:35;;;;;;;33.40;18.63;;;8.20;99.90;;;;;;5021391;28;20244;-91
2021/10/27 00:34:01;;;;;;;38.20;19.73;;;;;;;;;;5021632;28;20168;-91
2021/10/27 00:36:30;;;;;;;38.33;19.77;;;8.20;99.90;;;;;;5037384;28;20227;-90
2021/10/27 00:38:55;;;;;;;35.70;19.67;;;8.40;99.90;;;;;;5039441;28;20177;-88
2021/10/27 00:41:31;;;;;;;;;;;;;;;;;;;;;
2021/10/27 00:44:02;;;;;;;46.83;20.23;;;8.30;99.90;;;;;;5018431;28;20264;-90
2021/10/27 00:46:28;;;;;;;39.70;20.00;;;;;;;;;;5014999;28;20284;-90
2021/10/27 00:48:56;;;;;;;34.13;19.33;;;8.30;99.90;;;;;;4997729;28;20236;-90
2021/10/27 00:51:24;;;;;;;39.67;19.17;;;8.30;99.90;;;;;;5013098;28;20195;-89
2021/10/27 00:53:58;;;;;;;37.00;19.43;;;;;;;;;;4997292;28;20190;-90
2021/10/27 00:56:24;;;;;;;32.40;18.63;;;;;;;;;;5013470;28;20181;-88
2021/10/27 00:58:53;;;;;;;38.23;18.07;;;;;;;;;;5013329;28;20178;-89
2021/10/27 01:01:19;;;;;;;69.33;19.97;;;8.40;99.90;;;;;;4997437;28;20181;-89
2021/10/27 01:03:45;;;;;;;54.70;19.03;;;8.40;99.90;;;;;;5014624;28;20187;-90
2021/10/27 01:06:17;;;;;;;36.03;17.73;;;8.60;99.90;;;;;;5013356;28;20264;-89
2021/10/27 01:08:43;;;;;;;34.03;18.50;;;8.50;99.90;;;;;;5014185;28;20168;-89
2021/10/27 01:11:09;;;;;;;35.17;17.83;;;8.60;99.90;;;;;;5013158;28;20173;-89
2021/10/27 01:13:35;;;;;;;36.03;18.53;;;8.50;99.90;;;;;;5014063;28;20181;-89
2021/10/27 01:16:03;;;;;;;34.37;18.63;;;8.50;99.90;;;;;;4996811;28;20181;-89
2021/10/27 01:18:31;;;;;;;34.03;18.83;;;8.40;99.90;;;;;;5015024;28;20169;-88
2021/10/27 01:20:59;;;;;;;36.23;18.73;;;8.40;99.90;;;;;;5020506;28;20176;-88
2021/10/27 01:23:28;;;;;;;32.53;18.10;;;8.40;99.90;;;;;;5012986;28;20236;-89
2021/10/27 01:26:06;;;;;;;34.00;17.83;;;8.40;99.90;;;;;;5012854;28;20650;-89
2021/10/27 01:28:40;;;;;;;34.10;17.97;;;8.40;99.90;;;;;;4996384;28;20211;-89
2021/10/27 01:31:09;;;;;;;36.73;18.43;;;8.40;99.90;;;;;;5013293;28;20625;-89
2021/10/27 01:33:39;;;;;;;37.03;18.70;;;8.60;99.90;;;;;;5017186;28;20211;-89
2021/10/27 01:36:06;;;;;;;34.50;17.80;;;8.60;99.90;;;;;;5013278;28;20181;-89
2021/10/27 01:38:40;;;;;;;43.93;19.37;;;8.60;99.90;;;;;;5016703;28;20180;-89
2021/10/27 01:41:06;;;;;;;35.47;18.70;;;;;;;;;;5026644;28;20585;-88
2021/10/27 01:43:55;;;;;;;33.03;17.90;;;8.60;99.90;;;;;;5018734;28;20208;-88
2021/10/27 01:46:38;;;;;;;29.53;18.07;;;8.70;99.90;;;;;;5013249;28;20232;-88
2021/10/27 01:49:06;;;;;;;32.80;18.30;;;8.60;99.90;;;;;;5014089;28;20240;-91
2021/10/27 01:51:35;;;;;;;32.80;18.63;;;8.50;99.90;;;;;;5012692;28;20191;-90
2021/10/27 01:54:01;;;;;;;36.57;19.33;;;8.60;99.90;;;;;;5013038;28;20185;-90
2021/10/27 01:56:27;;;;;;;35.57;18.53;;;8.50;99.90;;;;;;5012679;28;20625;-90
2021/10/27 01:58:54;;;;;;;34.07;19.23;;;8.40;99.90;;;;;;5013321;28;20177;-89
2021/10/27 02:01:19;;;;;;;32.97;18.43;;;8.50;99.90;;;;;;5012443;28;20243;-89
2021/10/27 02:03:46;;;;;;;39.87;19.10;;;;;;;;;;5013867;28;20189;-89
2021/10/27 02:06:12;;;;;;;37.97;19.33;;;;;;;;;;5025225;28;20185;-87
2021/10/27 02:08:41;;;;;;;38.50;19.50;;;8.30;99.90;;;;;;5029935;28;20184;-89
2021/10/27 02:11:07;;;;;;;41.47;18.67;;;;;;;;;;5017071;28;20181;-89
2021/10/27 02:13:35;;;;;;;40.67;18.83;;;8.20;99.90;;;;;;5012967;28;20185;-89
2021/10/27 02:16:03;;;;;;;35.60;18.73;;;8.60;99.90;;;;;;5014238;28;20181;-90
2021/10/27 02:18:32;;;;;;;35.00;18.07;;;8.20;99.90;;;;;;5014063;28;20173;-90
2021/10/27 02:21:00;;;;;;;33.80;17.67;;;8.40;99.90;;;;;;5013952;28;20185;-90
2021/10/27 02:23:26;;;;;;;36.00;18.37;;;;;;;;;;4996552;28;20205;-91
2021/10/27 02:25:52;;;;;;;34.73;18.17;;;8.00;99.90;;;;;;5013035;28;20185;-90
2021/10/27 02:28:18;;;;;;;34.30;18.83;;;;;;;;;;5013227;28;20649;-90
2021/10/27 02:30:46;;;;;;;36.10;20.00;;;7.90;99.90;;;;;;5013142;28;20184;-90
2021/10/27 02:33:12;;;;;;;40.33;22.07;;;8.10;99.90;;;;;;5013371;28;20272;-91
2021/10/27 02:35:38;;;;;;;42.07;21.53;;;;;;;;;;5012990;28;20316;-91
2021/10/27 02:38:04;;;;;;;39.57;21.57;;;7.80;99.90;;;;;;5013037;28;20213;-90
2021/10/27 02:40:32;;;;;;;48.10;23.70;;;;;;;;;;5012958;28;20696;-91
2021/10/27 02:42:58;;;;;;;46.47;23.77;;;;;;;;;;5012699;28;20287;-89
2021/10/27 02:45:29;;;;;;;53.70;27.67;;;7.60;99.90;;;;;;5012396;28;20181;-90
2021/10/27 02:47:55;;;;;;;50.30;27.90;;;7.80;99.90;;;;;;5012504;28;20233;-89
2021/10/27 02:50:21;;;;;;;39.77;23.50;;;;;;;;;;5012876;28;20235;-90
2021/10/27 02:52:49;;;;;;;43.33;23.53;;;7.50;99.90;;;;;;5015338;28;20181;-90
2021/10/27 02:55:16;;;;;;;36.33;21.50;;;;;;;;;;5000088;28;20193;-91
2021/10/27 02:57:42;;;;;;;38.60;21.47;;;;;;;;;;5016352;28;20685;-89
2021/10/27 03:00:09;;;;;;;40.20;21.53;;;7.30;99.90;;;;;;5015823;28;20181;-89
2021/10/27 03:02:37;;;;;;;35.07;18.67;;;7.50;99.90;;;;;;5016861;28;20201;-89
2021/10/27 03:05:03;;;;;;;36.83;19.97;;;7.40;99.90;;;;;;5015882;28;20188;-92
2021/10/27 03:07:29;;;;;;;41.50;20.10;;;7.70;99.90;;;;;;5016314;28;20188;-92
2021/10/27 03:09:55;;;;;;;44.80;20.50;;;;;;;;;;5016076;28;20192;-91
2021/10/27 03:12:23;;;;;;;46.23;21.33;;;7.20;99.90;;;;;;5032655;28;20266;-89
2021/10/27 03:14:51;;;;;;;37.87;20.40;;;7.10;99.90;;;;;;5035463;28;20176;-91
2021/10/27 03:17:19;;;;;;;42.53;21.97;;;7.00;99.90;;;;;;5035270;28;20230;-91
2021/10/27 03:19:51;;;;;;;41.03;21.03;;;7.00;99.90;;;;;;4999492;28;20185;-91
2021/10/27 03:22:17;;;;;;;51.97;21.53;;;6.90;99.90;;;;;;5035600;28;20216;-89
2021/10/27 03:24:43;;;;;;;51.57;19.83;;;6.90;99.90;;;;;;5019894;28;20629;-91
2021/10/27 03:27:09;;;;;;;44.70;21.13;;;;;;;;;;5051672;28;20263;-90
2021/10/27 03:29:35;;;;;;;33.10;18.97;;;6.70;99.90;;;;;;5035718;28;20187;-92
2021/10/27 03:32:01;;;;;;;41.10;20.63;;;6.70;99.90;;;;;;5036536;28;20189;-91
2021/10/27 03:34:30;;;;;;;38.13;20.53;;;;;;;;;;5039984;28;20249;-89
2021/10/27 03:37:05;;;;;;;40.73;21.40;;;6.60;99.90;;;;;;5067380;28;20185;-92
2021/10/27 03:39:36;;;;;;;43.17;21.50;;;6.60;99.90;;;;;;5052819;28;20191;-94
2021/10/27 03:42:11;;;;;;;45.60;21.90;;;7.30;99.90;;;;;;5035148;28;20235;-95
2021/10/27 03:44:37;;;;;;;35.03;20.60;;;;;;;;;;5036983;28;20198;-93
2021/10/27 03:47:03;;;;;;;42.53;21.83;;;6.50;99.90;;;;;;5040520;28;20193;-94
2021/10/27 03:49:32;;;;;;;46.07;21.07;;;6.60;99.90;;;;;;5043681;28;20320;-91
2021/10/27 03:54:49;;;;;;;40.07;20.77;;;;;;;;;;5025095;28;20250;-90
2021/10/27 03:57:15;;;;;;;43.20;22.53;;;8.80;99.90;;;;;;5027337;28;20189;-90
2021/10/27 03:59:41;;;;;;;39.03;21.93;;;6.60;99.90;;;;;;5033480;28;20180;-90
2021/10/27 04:02:10;;;;;;;37.33;21.47;;;6.50;99.90;;;;;;5023144;28;20707;-90
2021/10/27 04:04:36;;;;;;;42.33;21.57;;;;;;;;;;5018588;28;20275;-91
2021/10/27 04:07:04;;;;;;;45.73;21.33;;;6.60;99.90;;;;;;5033652;28;20609;-90
2021/10/27 04:09:37;;;;;;;39.33;18.30;;;6.80;99.90;;;;;;5036693;28;20194;-89
2021/10/27 04:12:05;;;;;;;48.40;21.83;;;6.90;99.90;;;;;;5021551;28;20243;-89
2021/10/27 04:14:41;;;;;;;47.80;23.30;;;6.60;99.90;;;;;;5022447;28;20283;-89
2021/10/27 04:17:09;;;;;;;35.63;20.67;;;;;;;;;;5023320;28;20645;-91
2021/10/27 04:19:35;;;;;;;42.63;22.20;;;;;;;;;;5039019;28;20177;-90
2021/10/27 04:22:02;;;;;;;43.37;23.07;;;;;;;;;;5024055;28;20204;-90
2021/10/27 04:24:28;;;;;;;68.83;31.67;;;6.50;99.90;;;;;;5025463;28;20192;-89
2021/10/27 04:26:56;;;;;;;211.33;83.63;;;6.50;99.90;;;;;;5022589;28;20211;-90
2021/10/27 04:29:24;;;;;;;51.47;26.60;;;6.40;99.90;;;;;;5023853;28;20196;-88
2021/10/27 04:31:55;;;;;;;41.63;22.97;;;6.30;99.90;;;;;;5025126;28;20185;-89
2021/10/27 04:34:26;;;;;;;43.17;23.20;;;6.30;99.90;;;;;;5011292;28;20188;-88
2021/10/27 04:36:52;;;;;;;47.37;23.87;;;;;;;;;;5026962;28;20223;-88
2021/10/27 04:39:18;;;;;;;41.13;22.80;;;;;;;;;;5037356;28;20264;-87
2021/10/27 04:41:47;;;;;;;46.80;23.00;;;6.30;99.90;;;;;;5029171;28;20211;-89
2021/10/27 04:44:13;;;;;;;49.87;23.90;;;;;;;;;;5007483;28;20212;-89
2021/10/27 04:47:02;;;;;;;42.87;21.73;;;6.20;99.90;;;;;;5038871;28;20185;-88
2021/10/27 04:49:29;;;;;;;43.83;23.17;;;;;;;;;;5022296;28;20263;-89
2021/10/27 04:52:02;;;;;;;50.53;25.47;;;6.20;99.90;;;;;;5030227;28;20193;-89
2021/10/27 04:54:38;;;;;;;53.93;25.63;;;6.10;99.90;;;;;;5043844;28;20248;-91
2021/10/27 04:57:06;;;;;;;52.53;27.03;;;;;;;;;;5045342;28;20706;-91
2021/10/27 04:59:44;;;;;;;60.90;28.77;;;6.00;99.90;;;;;;5056144;28;20165;-91
2021/10/27 05:02:22;;;;;;;;;;;;;;;;;;;;;
2021/10/27 05:04:50;;;;;;;46.70;23.70;;;5.70;99.90;;;;;;5045214;28;20240;-92
2021/10/27 05:07:18;;;;;;;48.37;23.70;;;6.30;99.90;;;;;;5048438;28;20191;-93
2021/10/27 05:09:45;;;;;;;46.90;25.13;;;6.20;99.90;;;;;;5027960;28;20189;-89
2021/10/27 05:12:11;;;;;;;48.47;24.33;;;5.90;99.90;;;;;;5032811;28;20188;-86
2021/10/27 05:14:40;;;;;;;51.40;26.80;;;5.80;99.90;;;;;;5046427;28;20177;-90
2021/10/27 05:17:10;;;;;;;50.47;25.47;;;;;;;;;;5027278;28;20258;-90
2021/10/27 05:19:57;;;;;;;50.63;25.77;;;5.80;99.90;;;;;;5042789;28;20185;-88
2021/10/27 05:22:28;;;;;;;49.60;25.47;;;6.00;99.90;;;;;;5017829;28;20201;-89
2021/10/27 05:24:54;;;;;;;51.77;26.23;;;6.10;99.90;;;;;;5012309;28;20255;-88
2021/10/27 05:27:20;;;;;;;48.53;26.50;;;5.80;99.90;;;;;;5013710;28;20634;-87
2021/10/27 05:29:49;;;;;;;40.83;23.97;;;;;;;;;;5013602;28;20622;-89
2021/10/27 05:32:16;;;;;;;47.77;26.73;;;5.90;99.90;;;;;;5012769;28;20264;-89
2021/10/27 05:34:43;;;;;;;51.17;27.27;;;;;;;;;;5019865;28;20185;-87
2021/10/27 05:37:11;;;;;;;58.37;28.77;;;;;;;;;;5011693;28;20181;-87
2021/10/27 05:39:42;;;;;;;71.43;27.60;;;5.90;99.90;;;;;;5012390;28;20189;-87
2021/10/27 05:42:11;;;;;;;59.00;29.93;;;5.80;99.90;;;;;;5032985;28;20207;-88
2021/10/27 05:44:37;;;;;;;51.67;29.03;;;6.00;99.90;;;;;;5032221;28;20196;-89
2021/10/27 05:47:09;;;;;;;55.20;28.63;;;5.80;99.90;;;;;;5031955;28;20624;-88
2021/10/27 05:50:05;;;;;;;59.80;30.50;;;;;;;;;;5032610;28;20243;-88
2021/10/27 05:57:39;;;;;;;56.93;28.47;;;;;;;;;;5035286;28;20252;-88
2021/10/27 06:00:06;;;;;;;58.40;27.43;;;5.90;99.90;;;;;;5033682;28;20195;-89
2021/10/27 06:02:32;;;;;;;59.33;28.77;;;;;;;;;;5031904;28;20208;-89
2021/10/27 06:05:01;;;;;;;59.13;28.37;;;6.00;99.90;;;;;;5031363;28;20195;-90
2021/10/27 06:07:31;;;;;;;58.40;27.50;;;6.00;99.90;;;;;;5047990;28;20231;-90
2021/10/27 06:09:57;;;;;;;56.93;28.40;;;;;;;;;;5031980;28;20184;-90
2021/10/27 06:12:23;;;;;;;56.63;26.97;;;;;;;;;;5048699;28;20184;-87
2021/10/27 06:14:49;;;;;;;46.53;25.27;;;7.20;99.90;;;;;;5048595;28;20180;-89
2021/10/27 06:17:16;;;;;;;49.17;28.77;;;;;;;;;;5032209;28;20173;-88
2021/10/27 06:19:41;;;;;;;51.90;27.73;;;8.60;99.90;;;;;;5033839;28;20630;-89
2021/10/27 06:22:09;;;;;;;57.20;28.03;;;6.20;99.90;;;;;;5031996;28;20219;-89
2021/10/27 06:24:43;;;;;;;48.93;27.47;;;6.40;99.90;;;;;;5032365;28;20188;-89
2021/10/27 06:27:09;;;;;;;51.93;29.37;;;;;;;;;;5034717;28;20180;-90
2021/10/27 06:29:44;;;;;;;57.10;28.50;;;;;;;;;;5038755;28;20247;-89
2021/10/27 06:34:39;;;;;;;56.50;30.40;;;6.30;99.90;;;;;;5046635;28;20185;-92
2021/10/27 06:48:02;;;;;;;59.80;30.07;;;6.50;99.90;;;;;;5057248;28;20247;-90
2021/10/27 06:50:28;;;;;;;65.50;29.60;;;6.50;99.90;;;;;;5058793;28;20224;-90
2021/10/27 06:52:54;;;;;;;62.43;30.83;;;6.60;99.90;;;;;;5060689;28;20199;-91
2021/10/27 06:55:20;;;;;;;57.83;29.13;;;6.70;99.90;;;;;;5051403;28;20185;-91
2021/10/27 06:57:49;;;;;;;58.13;28.83;;;6.70;99.90;;;;;;5049762;28;20192;-88
2021/10/27 07:00:36;;;;;;;55.03;28.67;;;6.70;99.90;;;;;;5055484;28;20156;-88
2021/10/27 07:16:09;;;;;;;51.23;28.03;;;7.10;99.90;;;;;;5035296;28;20215;-88
2021/10/27 07:18:35;;;;;;;53.83;28.20;;;7.20;99.90;;;;;;5023911;28;20386;-88
2021/10/27 07:21:01;;;;;;;64.63;27.73;;;7.20;99.90;;;;;;5034177;28;20546;-88
2021/10/27 07:23:27;;;;;;;55.63;28.27;;;7.30;99.90;;;;;;5034109;28;20306;-89
2021/10/27 07:25:59;;;;;;;54.47;28.27;;;7.30;99.90;;;;;;5018018;28;20191;-91
2021/10/27 07:28:27;;;;;;;57.43;28.30;;;7.40;99.90;;;;;;5017312;28;20567;-89
2021/10/27 07:30:54;;;;;;;59.87;27.97;;;7.40;99.90;;;;;;5040119;28;20169;-89
2021/10/27 07:33:21;;;;;;;61.70;29.27;;;7.50;99.90;;;;;;5042393;28;20181;-88
2021/10/27 07:35:54;;;;;;;61.57;30.03;;;7.60;99.90;;;;;;5034428;28;20645;-89
2021/10/27 07:41:05;;;;;;;50.73;27.37;;;7.70;99.90;;;;;;5035206;28;20683;-87
2021/10/27 07:43:32;;;;;;;56.10;27.57;;;7.90;99.90;;;;;;5033922;28;20208;-87
2021/10/27 07:46:00;;;;;;;55.13;28.30;;;7.90;99.90;;;;;;5017199;28;20212;-88
2021/10/27 07:48:27;;;;;;;56.60;27.00;;;8.00;99.90;;;;;;5041022;28;20634;-88
2021/10/27 07:50:53;;;;;;;50.57;25.53;;;8.10;99.90;;;;;;5035122;28;20203;-89
2021/10/27 07:53:20;;;;;;;54.27;27.23;;;8.20;99.90;;;;;;5033212;28;20188;-92
2021/10/27 07:55:49;;;;;;;58.63;26.77;;;8.20;99.90;;;;;;5029627;28;20189;-87
2021/10/27 07:58:15;;;;;;;48.60;24.63;;;8.30;99.90;;;;;;4997632;28;20264;-88
2021/10/27 08:00:42;;;;;;;50.57;25.97;;;8.50;99.90;;;;;;5011263;28;20220;-89
2021/10/27 08:03:09;;;;;;;51.23;25.70;;;8.60;99.90;;;;;;5015593;28;20232;-87
2021/10/27 08:05:41;;;;;;;50.50;26.37;;;8.60;99.90;;;;;;5031964;28;20200;-87
2021/10/27 08:08:07;;;;;;;52.63;26.87;;;8.60;99.90;;;;;;5034771;28;20173;-89
2021/10/27 08:10:34;;;;;;;47.07;26.70;;;8.70;99.90;;;;;;5000363;28;20181;-88
2021/10/27 08:13:00;;;;;;;45.57;24.23;;;8.30;99.90;;;;;;5030009;28;20189;-86
2021/10/27 08:15:27;;;;;;;46.50;25.50;;;8.20;99.90;;;;;;5031573;28;20246;-88
2021/10/27 08:17:53;;;;;;;44.60;23.00;;;9.10;99.90;;;;;;5033208;28;20275;-87
2021/10/27 08:20:24;;;;;;;47.37;25.20;;;9.10;99.90;;;;;;5009950;28;20178;-88
2021/10/27 08:22:59;;;;;;;52.77;23.10;;;9.10;99.90;;;;;;5040750;28;20246;-87
2021/10/27 08:27:51;;;;;;;42.93;22.77;;;9.30;99.90;;;;;;5033184;28;20192;-87
2021/10/27 08:30:19;;;;;;;44.53;23.77;;;9.40;99.90;;;;;;5015619;28;20238;-87
2021/10/27 08:35:13;;;;;;;44.40;22.87;;;9.50;99.90;;;;;;5037279;28;20211;-87
2021/10/27 08:37:46;;;;;;;46.53;25.23;;;9.60;99.90;;;;;;5022314;28;20188;-88
2021/10/27 08:40:14;;;;;;;68.23;24.73;;;9.70;99.90;;;;;;5031478;28;20168;-85
2021/10/27 08:42:41;;;;;;;46.97;23.83;;;9.70;99.90;;;;;;5015338;28;20664;-87
2021/10/27 08:45:07;;;;;;;47.60;23.87;;;9.70;99.90;;;;;;5018047;28;20200;-87
2021/10/27 08:47:36;;;;;;;48.23;24.10;;;9.70;99.90;;;;;;5000125;28;20200;-88
2021/10/27 08:50:03;;;;;;;63.17;25.97;;;8.00;99.90;;;;;;5030509;28;20184;-86
2021/10/27 08:52:30;;;;;;;44.47;24.50;;;9.90;99.90;;;;;;5036429;28;20267;-88
2021/10/27 08:54:57;;;;;;;56.00;23.90;;;9.10;99.90;;;;;;5024883;28;20231;-88
2021/10/27 08:57:23;;;;;;;49.83;23.83;;;10.00;99.90;;;;;;5033936;28;20269;-88
2021/10/27 08:59:58;;;;;;;42.17;23.27;;;;;;;;;;5041564;28;20185;-87
2021/10/27 09:05:52;;;;;;;44.33;25.17;;;8.50;99.90;;;;;;5046546;28;20191;-89
2021/10/27 09:37:00;;;;;;;41.85;23.42;;;11.50;99.90;;;;;;5032038;28;20279;-87
2021/10/27 09:39:48;;;;;;;48.45;24.40;;;11.60;99.90;;;;;;5032530;28;20180;-88
2021/10/27 10:06:57;;;;;;;34.13;18.63;;;12.90;99.90;;;;;;5047538;28;20164;-91
2021/10/27 10:09:25;;;;;;;42.17;20.15;;;13.10;99.90;;;;;;5061042;28;20176;-89
2021/10/27 10:11:55;;;;;;;39.15;19.48;;;12.80;99.90;;;;;;5062795;28;20172;-90
2021/10/27 10:14:21;;;;;;;36.67;18.52;;;12.90;99.90;;;;;;5061399;28;20180;-90
2021/10/27 10:16:54;;;;;;;38.72;20.10;;;12.90;99.90;;;;;;5044414;28;20609;-90
2021/10/27 10:19:29;;;;;;;31.65;18.42;;;12.60;99.90;;;;;;5061029;28;20184;-88
2021/10/27 10:21:57;;;;;;;32.58;17.17;;;13.00;99.90;;;;;;5042684;28;20183;-90
2021/10/27 10:24:24;;;;;;;32.42;18.30;;;13.20;99.90;;;;;;5042489;28;20184;-90
2021/10/27 10:26:55;;;;;;;34.08;17.77;;;12.10;99.90;;;;;;5040947;28;20234;-90
2021/10/27 10:32:33;;;;;;;33.53;18.75;;;13.50;99.90;;;;;;5041382;28;20184;-88
2021/10/27 10:35:14;;;;;;;35.00;17.58;;;13.60;99.90;;;;;;5059563;28;20211;-88
2021/10/27 10:40:47;;;;;;;32.47;17.33;;;13.90;99.90;;;;;;5044511;28;20225;-88
2021/10/27 10:43:26;;;;;;;25.83;14.80;;;13.60;99.90;;;;;;5043478;28;20249;-87
2021/10/27 11:25:51;;;;;;;26.88;13.13;;;14.70;99.90;;;;;;5038136;28;20194;-88
2021/10/27 11:45:07;;;;;;;21.35;10.20;;;14.70;99.90;;;;;;5041428;28;20193;-91
2021/10/27 11:47:43;;;;;;;21.33;10.25;;;15.00;99.90;;;;;;5042351;28;20184;-91
2021/10/27 11:50:19;;;;;;;23.85;11.15;;;15.20;99.90;;;;;;5043533;28;20247;-89
2021/10/27 11:52:52;;;;;;;19.98;10.15;;;14.90;99.90;;;;;;5058982;28;20214;-90
2021/10/27 11:55:28;;;;;;;27.08;11.40;;;14.80;99.90;;;;;;5037143;28;20188;-90
2021/10/27 11:58:24;;;;;;;;;;;;;;;;;;;;;
2021/10/27 12:01:00;;;;;;;18.20;10.43;;;15.10;99.90;;;;;;5035861;28;20614;-89
2021/10/27 12:03:37;;;;;;;25.52;12.57;;;15.00;99.90;;;;;;5034712;28;20218;-87
2021/10/27 12:06:12;;;;;;;21.15;11.27;;;15.20;99.90;;;;;;5018021;28;20211;-89
2021/10/27 12:11:50;;;;;;;20.00;12.57;;;15.00;99.90;;;;;;5036597;28;20593;-88
2021/10/27 12:19:22;;;;;;;25.92;11.43;;;14.60;99.90;;;;;;5048528;28;20168;-86
2021/10/27 12:22:21;;;;;;;18.45;10.38;;;14.70;99.90;;;;;;5044215;28;20177;-88
2021/10/27 12:24:56;;;;;;;24.67;10.60;;;15.70;99.90;;;;;;5043785;28;20177;-90
2021/10/27 12:27:35;;;;;;;24.52;11.32;;;13.80;99.90;;;;;;5044891;28;20218;-90
2021/10/27 12:30:08;;;;;;;19.70;9.75;;;14.70;99.90;;;;;;5047993;28;20173;-92
2021/10/27 12:32:49;;;;;;;19.75;9.95;;;14.50;99.90;;;;;;5043763;28;20181;-90
2021/10/27 12:35:16;;;;;;;17.38;8.30;;;14.60;99.90;;;;;;5043422;28;20204;-89
2021/10/27 12:40:11;;;;;;;9.93;6.93;;;15.00;99.90;;;;;;5042905;28;20181;-91
2021/10/27 12:42:39;;;;;;;17.25;7.10;;;15.70;99.90;;;;;;5043978;28;20204;-87
2021/10/27 12:45:05;;;;;;;11.13;6.15;;;15.10;99.90;;;;;;5043093;28;20180;-87
2021/10/27 12:47:39;;;;;;;10.68;6.50;;;15.70;99.90;;;;;;5043266;28;20177;-88
2021/10/27 12:50:16;;;;;;;16.83;6.72;;;15.50;99.90;;;;;;5034135;28;20720;-89
2021/10/27 12:52:55;;;;;;;9.88;6.03;;;15.80;99.90;;;;;;5035477;28;20216;-90
2021/10/27 12:55:39;;;;;;;11.63;5.65;;;15.60;99.90;;;;;;5035908;28;20195;-89
2021/10/27 12:58:20;;;;;;;11.50;6.15;;;16.00;99.90;;;;;;5018444;28;20180;-89
2021/10/27 13:00:55;;;;;;;12.73;6.13;;;16.30;99.90;;;;;;5017223;28;20579;-91
2021/10/27 13:14:39;;;;;;;13.45;5.97;;;18.10;99.90;;;;;;5038433;28;20161;-90
2021/10/27 13:31:14;;;;;;;14.15;6.88;;;16.50;99.90;;;;;;5051155;28;20188;-92
2021/10/27 13:33:21;;;;;;;14.30;6.45;;;16.20;99.90;;;;;;5049506;28;20172;-93
2021/10/27 13:35:57;;;;;;;;;;;;;;;;;;;;;
2021/10/27 13:38:36;;;;;;;;;;;;;;;;;;;;;
2021/10/27 13:41:07;;;;;;;15.25;7.72;;;16.00;99.90;;;;;;5032731;28;20251;-92
2021/10/27 13:44:11;;;;;;;16.67;7.28;;;16.20;99.90;;;;;;5044594;28;20668;-92
2021/10/27 14:09:03;;;;;;;15.45;8.98;;;14.10;99.90;;;;;;4950809;28;20217;-91
2021/10/27 14:11:43;;;;;;;20.58;9.00;;;16.70;99.90;;;;;;5045368;28;20243;-91
2021/10/27 14:40:05;;;;;;;20.17;11.35;;;13.60;99.90;;;;;;5035004;28;20192;-91
2021/10/27 15:36:22;;;;;;;42.70;18.50;;;10.90;99.90;;;;;;5022447;28;20578;-92
2021/10/27 15:44:54;;;;;;;31.83;14.27;;;12.50;99.90;;;;;;5028300;28;20220;-93
2021/10/27 15:51:15;;;;;;;54.72;25.85;;;11.70;99.90;;;;;;5004636;28;20200;-91
2021/10/27 15:57:45;;;;;;;42.42;18.52;;;10.80;99.90;;;;;;4992140;28;20170;-93
2021/10/27 16:00:19;;;;;;;45.90;19.98;;;11.40;99.90;;;;;;5006481;28;20204;-93
2021/10/27 16:02:58;;;;;;;;;;;;;;;;;;;;;
2021/10/27 16:09:09;;;;;;;;;;;;;;;;;;;;;
2021/10/27 16:11:39;;;;;;;38.30;19.50;;;10.40;99.90;;;;;;4937552;29;20195;-93
2021/10/27 16:14:44;;;;;;;;;;;;;;;;;;;;;
2021/10/27 16:21:31;;;;;;;31.58;15.50;;;11.40;99.90;;;;;;5001620;28;20219;-93
2021/10/27 16:24:24;;;;;;;30.45;15.68;;;11.20;99.90;;;;;;4920918;29;20238;-92
2021/10/27 16:27:09;;;;;;;;;;;;;;;;;;;;;
2021/10/27 16:33:18;;;;;;;33.38;16.35;;;10.80;99.90;;;;;;4954767;28;20537;-93
2021/10/27 16:40:29;;;;;;;77.50;47.42;;;11.60;99.90;;;;;;4934961;29;20194;-93
2021/10/27 16:43:11;;;;;;;54.30;33.78;;;10.70;99.90;;;;;;4938132;28;20233;-92
2021/10/27 16:45:51;;;;;;;81.47;55.05;;;10.60;99.90;;;;;;4980141;28;20191;-92
2021/10/27 16:48:36;;;;;;;80.95;59.50;;;8.20;99.90;;;;;;4989859;28;20247;-93
2021/10/27 16:51:46;;;;;;;45.40;23.42;;;10.70;99.90;;;;;;5039143;28;20191;-92
2021/10/27 16:54:23;;;;;;;48.97;25.40;;;12.20;99.90;;;;;;5031409;28;20552;-91
2021/10/27 16:57:18;;;;;;;45.30;23.30;;;10.60;99.90;;;;;;5032764;28;20394;-92
2021/10/27 16:59:56;;;;;;;;;;;;;;;;;;;;;
2021/10/27 17:02:27;;;;;;;59.00;26.65;;;10.70;99.90;;;;;;5034697;28;20495;-92
2021/10/27 17:05:27;;;;;;;60.07;28.17;;;9.80;99.90;;;;;;5032463;28;20181;-93
2021/10/27 17:15:02;;;;;;;;;;;;;;;;;;;;;
2021/10/27 17:17:49;;;;;;;55.00;28.70;;;10.20;99.90;;;;;;5031597;28;20184;-91
2021/10/27 17:21:05;;;;;;;55.90;30.30;;;10.40;99.90;;;;;;5021743;28;20242;-91
2021/10/27 17:23:47;;;;;;;50.63;28.13;;;10.40;99.90;;;;;;5029291;28;20189;-91
2021/10/27 17:26:23;;;;;;;59.27;29.73;;;8.90;99.90;;;;;;5013500;28;20196;-91
2021/10/27 17:29:32;;;;;;;53.70;32.10;;;10.20;99.90;;;;;;5011573;28;20181;-91
2021/10/27 17:32:15;;;;;;;53.00;31.02;;;10.40;99.90;;;;;;5029733;28;20208;-91
2021/10/27 17:34:47;;;;;;;70.07;42.83;;;10.10;99.90;;;;;;5029625;28;20184;-93
2021/10/27 17:37:16;;;;;;;63.37;33.53;;;11.00;99.90;;;;;;5029776;28;20299;-94
2021/10/27 17:39:52;;;;;;;58.53;32.77;;;10.40;99.90;;;;;;5029600;28;20181;-92
2021/10/27 17:42:41;;;;;;;63.40;33.73;;;10.00;99.90;;;;;;5014948;28;20184;-93
2021/10/27 17:45:34;;;;;;;;;;;;;;;;;;;;;
2021/10/27 17:48:06;;;;;;;76.97;41.97;;;10.20;99.90;;;;;;5030264;28;20605;-93
2021/10/27 18:03:27;;;;;;;81.33;44.57;;;9.90;99.90;;;;;;5008759;28;20201;-93
2021/10/27 18:06:05;;;;;;;81.30;39.80;;;10.00;99.90;;;;;;5022220;28;20189;-93
2021/10/27 18:08:33;;;;;;;85.63;45.03;;;9.90;99.90;;;;;;5020837;28;20192;-92
2021/10/27 18:11:27;;;;;;;85.03;45.70;;;10.00;99.90;;;;;;5013641;28;20222;-92
2021/10/27 18:13:59;;;;;;;511.63;299.10;;;;;;;;;;5015497;28;20275;-92
2021/10/27 18:16:44;;;;;;;252.37;140.23;;;9.70;99.90;;;;;;5021261;28;20646;-91
2021/10/27 18:21:47;;;;;;;197.13;89.20;;;8.30;99.90;;;;;;5018100;28;20284;-91
2021/10/27 18:37:54;;;;;;;184.13;83.90;;;10.40;99.90;;;;;;5020726;28;20212;-88
2021/10/27 18:43:29;;;;;;;90.97;50.57;;;9.60;99.90;;;;;;5006532;28;20224;-89
2021/10/27 18:45:58;;;;;;;137.53;73.50;;;9.80;99.90;;;;;;5013886;28;20196;-89
2021/10/27 18:48:24;;;;;;;91.43;49.27;;;;;;;;;;5001295;28;20190;-89
2021/10/27 18:58:42;;;;;;;81.83;45.40;;;9.30;99.90;;;;;;5009911;28;20189;-88
2021/10/27 19:01:24;;;;;;;93.30;54.07;;;9.50;99.90;;;;;;4999476;28;20196;-88
2021/10/27 19:12:25;;;;;;;68.10;41.53;;;9.20;99.90;;;;;;5018535;28;20244;-90
2021/10/27 19:17:29;;;;;;;66.50;37.60;;;9.20;99.90;;;;;;5035544;28;20192;-89
2021/10/27 19:19:56;;;;;;;62.10;34.17;;;9.10;99.90;;;;;;5017204;28;20609;-88
2021/10/27 19:22:23;;;;;;;63.30;35.73;;;7.20;99.90;;;;;;4998271;28;20185;-89
2021/10/27 19:27:53;;;;;;;66.50;39.37;;;9.10;99.90;;;;;;5008162;28;20201;-88
2021/10/27 20:08:58;;;;;;;54.13;28.97;;;;;;;;;;5019526;28;20255;-87
2021/10/27 20:14:16;;;;;;;58.47;31.43;;;8.60;99.90;;;;;;5006739;28;20236;-87
2021/10/27 20:19:26;;;;;;;58.33;29.30;;;;;;;;;;5026392;28;20672;-87
2021/10/27 20:55:23;;;;;;;51.27;26.20;;;8.30;99.90;;;;;;5013480;28;20657;-88
2021/10/27 21:00:38;;;;;;;46.60;25.27;;;8.20;99.90;;;;;;5013662;28;20177;-88
2021/10/27 21:13:43;;;;;;;45.30;23.80;;;8.10;99.90;;;;;;5022699;28;20250;-87
2021/10/27 21:16:10;;;;;;;52.23;26.47;;;;;;;;;;5004468;28;20260;-89
2021/10/27 21:18:38;;;;;;;50.57;24.63;;;8.10;99.90;;;;;;5006088;28;20205;-89
2021/10/27 21:21:07;;;;;;;50.77;26.67;;;;;;;;;;5013967;28;20215;-89
2021/10/27 21:23:36;;;;;;;49.37;26.73;;;8.10;99.90;;;;;;4996030;28;20558;-89
2021/10/27 21:26:03;;;;;;;53.90;27.40;;;;;;;;;;5013376;28;20180;-88
2021/10/27 21:31:20;;;;;;;64.50;32.07;;;8.20;99.90;;;;;;5013245;28;20177;-90